createdAt,value
2018-02-23T00:01:14.986Z,-4.60
2018-02-23T00:03:42.552Z,-4.70
2018-02-23T00:06:10.090Z,-4.70
2018-02-23T00:08:37.645Z,-4.70
2018-02-23T00:11:05.827Z,-4.70
2018-02-23T00:13:34.860Z,-4.70
2018-02-23T00:16:02.383Z,-4.70
2018-02-23T00:18:30.703Z,-4.80
2018-02-23T00:20:58.241Z,-4.80
2018-02-23T00:23:26.574Z,-4.80
2018-02-23T00:25:54.096Z,-4.80
2018-02-23T00:28:22.412Z,-4.90
2018-02-23T00:30:49.932Z,-4.90
2018-02-23T00:33:17.445Z,-5.00
2018-02-23T00:35:44.998Z,-5.10
2018-02-23T00:38:12.511Z,-5.20
2018-02-23T00:40:40.068Z,-5.20
2018-02-23T00:43:07.591Z,-5.20
2018-02-23T00:45:35.150Z,-5.20
2018-02-23T00:48:02.672Z,-5.20
2018-02-23T00:50:30.211Z,-5.10
2018-02-23T00:52:57.740Z,-5.00
2018-02-23T00:55:25.304Z,-5.00
2018-02-23T00:57:52.819Z,-5.10
2018-02-23T01:00:20.378Z,-5.10
2018-02-23T01:02:47.890Z,-5.10
2018-02-23T01:05:16.202Z,-5.20
2018-02-23T01:07:43.728Z,-5.20
2018-02-23T01:10:11.296Z,-5.20
2018-02-23T01:15:10.581Z,-5.30
2018-02-23T01:17:38.867Z,-5.30
2018-02-23T01:20:07.183Z,-5.30
2018-02-23T01:22:34.707Z,-5.30
2018-02-23T01:25:02.263Z,-5.30
2018-02-23T01:27:29.800Z,-5.30
2018-02-23T01:29:57.342Z,-5.40
2018-02-23T01:32:25.636Z,-5.50
2018-02-23T01:34:53.952Z,-5.50
2018-02-23T01:37:21.468Z,-5.50
2018-02-23T01:39:49.035Z,-5.60
2018-02-23T01:42:16.564Z,-5.60
2018-02-23T01:44:44.111Z,-5.60
2018-02-23T01:47:11.636Z,-5.60
2018-02-23T01:49:39.201Z,-5.50
2018-02-23T01:52:06.722Z,-5.50
2018-02-23T01:54:35.049Z,-5.50
2018-02-23T01:57:02.575Z,-5.50
2018-02-23T01:59:30.137Z,-5.50
2018-02-23T02:01:57.668Z,-5.40
2018-02-23T02:04:25.220Z,-5.40
2018-02-23T02:06:52.747Z,-5.30
2018-02-23T02:09:20.292Z,-5.30
2018-02-23T02:14:38.478Z,-5.20
2018-02-23T02:17:06.003Z,-5.30
2018-02-23T02:19:34.327Z,-5.30
2018-02-23T02:22:01.856Z,-5.30
2018-02-23T02:24:29.414Z,-5.30
2018-02-23T02:26:56.940Z,-5.40
2018-02-23T02:29:24.549Z,-5.40
2018-02-23T02:31:52.101Z,-5.40
2018-02-23T02:34:19.664Z,-5.40
2018-02-23T02:36:47.196Z,-5.40
2018-02-23T02:39:14.769Z,-5.40
2018-02-23T02:41:43.079Z,-5.50
2018-02-23T02:44:10.678Z,-5.50
2018-02-23T02:46:38.199Z,-5.50
2018-02-23T02:49:05.756Z,-5.50
2018-02-23T02:51:33.280Z,-5.50
2018-02-23T02:54:01.121Z,-5.60
2018-02-23T02:56:28.641Z,-5.60
2018-02-23T02:58:56.212Z,-5.70
2018-02-23T03:01:23.736Z,-5.70
2018-02-23T03:03:51.272Z,-5.70
2018-02-23T03:06:18.820Z,-5.80
2018-02-23T03:08:46.345Z,-5.80
2018-02-23T03:11:13.913Z,-5.80
2018-02-23T03:13:41.444Z,-5.80
2018-02-23T03:16:09.004Z,-5.90
2018-02-23T03:18:36.613Z,-5.90
2018-02-23T03:21:04.144Z,-6.00
2018-02-23T03:23:31.696Z,-6.00
2018-02-23T03:25:59.996Z,-6.00
2018-02-23T03:28:28.324Z,-5.90
2018-02-23T03:30:55.848Z,-6.00
2018-02-23T03:33:24.175Z,-5.90
2018-02-23T03:35:51.691Z,-6.00
2018-02-23T03:38:19.248Z,-6.00
2018-02-23T03:40:46.768Z,-6.10
2018-02-23T03:43:15.111Z,-6.20
2018-02-23T03:45:43.494Z,-6.20
2018-02-23T03:48:13.014Z,-6.20
2018-02-23T03:50:40.605Z,-6.20
2018-02-23T03:53:08.132Z,-6.20
2018-02-23T03:55:35.700Z,-6.30
2018-02-23T03:58:03.230Z,-6.40
2018-02-23T04:00:30.789Z,-6.40
2018-02-23T04:02:58.312Z,-6.40
2018-02-23T04:05:25.863Z,-6.50
2018-02-23T04:07:54.148Z,-6.60
2018-02-23T04:10:22.464Z,-6.60
2018-02-23T04:12:50.057Z,-6.60
2018-02-23T04:15:17.616Z,-6.60
2018-02-23T04:17:46.200Z,-6.70
2018-02-23T04:20:15.094Z,-6.90
2018-02-23T04:22:42.890Z,-6.90
2018-02-23T04:25:10.468Z,-6.90
2018-02-23T04:27:39.146Z,-6.90
2018-02-23T04:30:06.707Z,-7.00
2018-02-23T04:32:36.009Z,-7.00
2018-02-23T04:35:03.573Z,-7.00
2018-02-23T04:37:31.094Z,-6.80
2018-02-23T04:39:58.853Z,-6.80
2018-02-23T04:42:33.571Z,-6.80
2018-02-23T04:45:01.916Z,-6.80
2018-02-23T04:47:29.453Z,-6.80
2018-02-23T04:49:57.944Z,-6.80
2018-02-23T04:52:26.233Z,-6.70
2018-02-23T04:54:54.551Z,-6.70
2018-02-23T04:57:22.086Z,-6.70
2018-02-23T04:59:49.649Z,-6.60
2018-02-23T05:02:19.105Z,-6.60
2018-02-23T05:04:52.337Z,-6.60
2018-02-23T05:07:25.209Z,-6.60
2018-02-23T05:09:52.777Z,-6.70
2018-02-23T05:12:20.313Z,-6.70
2018-02-23T05:14:47.877Z,-6.80
2018-02-23T05:17:15.407Z,-6.90
2018-02-23T05:19:42.959Z,-6.80
2018-02-23T05:22:11.273Z,-7.00
2018-02-23T05:24:38.825Z,-7.00
2018-02-23T05:27:06.349Z,-7.00
2018-02-23T05:29:33.903Z,-7.10
2018-02-23T05:32:01.445Z,-7.00
2018-02-23T05:34:29.000Z,-7.00
2018-02-23T05:36:56.528Z,-7.00
2018-02-23T05:39:24.091Z,-6.90
2018-02-23T05:41:52.236Z,-6.90
2018-02-23T05:44:19.869Z,-6.80
2018-02-23T05:46:47.402Z,-6.80
2018-02-23T05:49:14.960Z,-6.80
2018-02-23T05:51:42.492Z,-6.80
2018-02-23T05:54:10.031Z,-7.00
2018-02-23T05:56:37.580Z,-7.00
2018-02-23T05:59:05.152Z,-7.10
2018-02-23T06:01:32.666Z,-7.20
2018-02-23T06:04:00.991Z,-7.20
2018-02-23T06:06:28.519Z,-7.20
2018-02-23T06:08:56.088Z,-7.30
2018-02-23T06:11:23.611Z,-7.40
2018-02-23T06:13:51.942Z,-7.50
2018-02-23T06:16:25.203Z,-7.50
2018-02-23T06:18:58.460Z,-7.30
2018-02-23T06:21:25.991Z,-7.30
2018-02-23T06:23:53.546Z,-7.20
2018-02-23T06:26:21.072Z,-7.20
2018-02-23T06:28:48.647Z,-7.10
2018-02-23T06:31:16.209Z,-7.10
2018-02-23T06:33:43.768Z,-7.00
2018-02-23T06:36:12.059Z,-7.00
2018-02-23T06:38:39.625Z,-7.00
2018-02-23T06:41:07.930Z,-6.90
2018-02-23T06:43:36.386Z,-7.00
2018-02-23T06:46:03.933Z,-6.90
2018-02-23T06:48:31.479Z,-6.80
2018-02-23T06:50:59.045Z,-6.80
2018-02-23T06:53:26.585Z,-6.70
2018-02-23T06:55:54.900Z,-6.50
2018-02-23T06:58:22.435Z,-6.60
2018-02-23T07:00:49.990Z,-6.40
2018-02-23T07:03:17.513Z,-6.30
2018-02-23T07:05:45.075Z,-6.20
2018-02-23T07:08:13.385Z,-3.20
2018-02-23T07:10:40.990Z,-3.20
2018-02-23T07:13:08.528Z,-0.60
2018-02-23T07:15:36.088Z,1.30
2018-02-23T07:18:04.416Z,2.60
2018-02-23T07:20:31.972Z,3.90
2018-02-23T07:22:59.486Z,5.20
2018-02-23T07:25:27.055Z,6.50
2018-02-23T07:27:54.569Z,6.90
2018-02-23T07:30:22.113Z,7.50
2018-02-23T07:32:49.632Z,7.90
2018-02-23T07:35:17.184Z,8.70
2018-02-23T07:37:45.467Z,10.10
2018-02-23T07:40:13.788Z,10.70
2018-02-23T07:42:41.317Z,10.70
2018-02-23T07:45:08.873Z,11.50
2018-02-23T07:47:36.395Z,12.00
2018-02-23T07:50:03.964Z,12.60
2018-02-23T07:52:31.487Z,12.90
2018-02-23T07:54:59.127Z,13.60
2018-02-23T07:57:26.660Z,14.00
2018-02-23T07:59:54.981Z,14.20
2018-02-23T08:02:22.519Z,14.20
2018-02-23T08:04:50.077Z,14.50
2018-02-23T08:07:18.376Z,14.80
2018-02-23T08:09:45.920Z,14.80
2018-02-23T08:12:13.444Z,15.30
2018-02-23T08:14:40.994Z,15.40
2018-02-23T08:17:09.292Z,16.00
2018-02-23T08:19:36.809Z,16.00
2018-02-23T08:22:04.364Z,15.90
2018-02-23T08:24:31.873Z,15.80
2018-02-23T08:26:59.429Z,15.50
2018-02-23T08:29:26.976Z,15.30
2018-02-23T08:31:54.544Z,15.50
2018-02-23T08:34:22.075Z,14.50
2018-02-23T08:36:49.636Z,15.40
2018-02-23T08:39:17.442Z,15.20
2018-02-23T08:41:45.817Z,15.10
2018-02-23T08:44:13.345Z,15.10
2018-02-23T08:46:40.917Z,15.80
2018-02-23T08:49:08.459Z,16.20
2018-02-23T08:51:37.740Z,14.70
2018-02-23T08:54:05.258Z,14.70
2018-02-23T08:56:32.816Z,12.80
2018-02-23T08:59:00.355Z,12.00
2018-02-23T09:01:27.931Z,11.20
2018-02-23T09:03:55.452Z,12.00
2018-02-23T09:06:23.000Z,11.90
2018-02-23T09:08:50.508Z,12.60
2018-02-23T09:11:18.052Z,12.40
2018-02-23T09:13:46.337Z,11.20
2018-02-23T09:16:14.664Z,10.80
2018-02-23T09:18:42.197Z,10.80
2018-02-23T09:21:09.739Z,10.60
2018-02-23T09:23:37.260Z,9.70
2018-02-23T09:26:04.792Z,9.60
2018-02-23T09:28:32.297Z,9.50
2018-02-23T09:30:59.836Z,8.60
2018-02-23T09:33:39.168Z,8.90
2018-02-23T09:36:06.716Z,8.60
2018-02-23T09:38:34.247Z,8.40
2018-02-23T09:41:01.779Z,8.80
2018-02-23T09:43:29.307Z,9.10
2018-02-23T09:45:56.857Z,9.40
2018-02-23T09:48:25.129Z,9.70
2018-02-23T09:50:52.680Z,9.60
2018-02-23T09:53:20.203Z,10.10
2018-02-23T09:55:47.756Z,9.50
2018-02-23T09:58:15.263Z,9.60
2018-02-23T10:00:42.819Z,9.90
2018-02-23T10:03:11.095Z,9.70
2018-02-23T10:05:38.654Z,9.60
2018-02-23T10:08:06.175Z,9.10
2018-02-23T10:10:33.720Z,8.60
2018-02-23T10:13:02.011Z,8.50
2018-02-23T10:15:29.520Z,8.50
2018-02-23T10:17:57.067Z,8.80
2018-02-23T10:20:24.583Z,8.90
2018-02-23T10:22:52.140Z,8.80
2018-02-23T10:25:19.653Z,8.70
2018-02-23T10:27:47.196Z,8.00
2018-02-23T10:30:14.749Z,8.70
2018-02-23T10:32:42.323Z,8.80
2018-02-23T10:35:10.590Z,9.30
2018-02-23T10:37:38.107Z,9.30
2018-02-23T10:40:05.624Z,8.60
2018-02-23T10:42:33.165Z,8.40
2018-02-23T10:45:00.711Z,8.50
2018-02-23T10:47:28.225Z,8.90
2018-02-23T10:49:56.539Z,8.60
2018-02-23T10:52:24.066Z,8.50
2018-02-23T10:54:51.606Z,8.00
2018-02-23T10:57:19.120Z,8.00
2018-02-23T10:59:46.624Z,8.30
2018-02-23T11:02:14.172Z,8.40
2018-02-23T11:04:42.464Z,8.40
2018-02-23T11:07:10.776Z,9.00
2018-02-23T11:09:38.290Z,9.00
2018-02-23T11:12:05.850Z,9.10
2018-02-23T11:14:33.368Z,9.00
2018-02-23T11:17:01.682Z,8.10
2018-02-23T11:19:29.199Z,8.10
2018-02-23T11:21:56.739Z,7.30
2018-02-23T11:24:24.255Z,6.10
2018-02-23T11:26:51.811Z,5.20
2018-02-23T11:29:19.331Z,4.70
2018-02-23T11:31:46.889Z,4.30
2018-02-23T11:34:14.401Z,4.20
2018-02-23T11:36:41.944Z,4.00
2018-02-23T11:39:10.222Z,3.90
2018-02-23T11:41:37.824Z,3.90
2018-02-23T11:44:05.364Z,3.90
2018-02-23T11:46:33.674Z,3.80
2018-02-23T11:49:01.220Z,3.80
2018-02-23T11:51:28.746Z,3.80
2018-02-23T11:53:56.283Z,3.60
2018-02-23T11:56:24.575Z,3.60
2018-02-23T11:58:52.888Z,3.80
2018-02-23T12:01:20.440Z,3.80
2018-02-23T12:03:48.712Z,3.90
2018-02-23T12:06:17.016Z,4.00
2018-02-23T12:08:44.568Z,3.90
2018-02-23T12:11:12.116Z,4.00
2018-02-23T12:13:39.644Z,4.10
2018-02-23T12:16:07.217Z,4.00
2018-02-23T12:18:34.735Z,4.00
2018-02-23T12:21:02.299Z,4.00
2018-02-23T12:23:29.821Z,3.80
2018-02-23T12:25:57.379Z,3.70
2018-02-23T12:28:25.717Z,3.70
2018-02-23T12:30:53.998Z,3.80
2018-02-23T12:33:21.515Z,3.80
2018-02-23T12:35:49.052Z,3.90
2018-02-23T12:38:16.575Z,3.80
2018-02-23T12:40:44.123Z,3.90
2018-02-23T12:43:11.647Z,3.90
2018-02-23T12:45:39.182Z,3.90
2018-02-23T12:48:06.705Z,3.90
2018-02-23T12:50:34.256Z,4.00
2018-02-23T12:53:01.775Z,4.10
2018-02-23T12:55:29.320Z,4.20
2018-02-23T12:57:56.842Z,4.40
2018-02-23T13:00:24.384Z,4.40
2018-02-23T13:02:51.894Z,4.30
2018-02-23T13:05:19.435Z,4.30
2018-02-23T13:07:47.691Z,4.30
2018-02-23T13:10:15.236Z,4.40
2018-02-23T13:12:43.516Z,4.40
2018-02-23T13:15:17.402Z,4.30
2018-02-23T13:17:44.936Z,4.30
2018-02-23T13:20:12.476Z,4.20
2018-02-23T13:22:39.980Z,4.20
2018-02-23T13:25:07.524Z,4.20
2018-02-23T13:27:35.811Z,4.20
2018-02-23T13:30:04.128Z,4.30
2018-02-23T13:32:31.646Z,4.30
2018-02-23T13:34:59.184Z,4.30
2018-02-23T13:37:26.701Z,4.30
2018-02-23T13:39:54.243Z,4.40
2018-02-23T13:42:23.368Z,4.40
2018-02-23T13:44:50.898Z,4.50
2018-02-23T13:47:18.414Z,4.60
2018-02-23T13:49:45.959Z,4.50
2018-02-23T13:52:13.484Z,4.50
2018-02-23T13:54:41.039Z,4.50
2018-02-23T13:57:08.545Z,4.50
2018-02-23T13:59:36.096Z,4.40
2018-02-23T14:02:03.611Z,4.40
2018-02-23T14:04:31.154Z,4.40
2018-02-23T14:07:04.447Z,4.40
2018-02-23T14:09:32.031Z,4.40
2018-02-23T14:12:00.317Z,4.30
2018-02-23T14:14:28.639Z,4.30
2018-02-23T14:16:56.143Z,4.20
2018-02-23T14:19:24.431Z,4.40
2018-02-23T14:21:51.984Z,4.30
2018-02-23T14:24:19.523Z,4.40
2018-02-23T14:26:47.805Z,4.40
2018-02-23T14:29:16.088Z,4.30
2018-02-23T14:31:44.396Z,4.40
2018-02-23T14:34:11.974Z,4.30
2018-02-23T14:36:39.529Z,4.40
2018-02-23T14:39:07.812Z,4.30
2018-02-23T14:41:36.123Z,4.30
2018-02-23T14:44:03.635Z,4.30
2018-02-23T14:46:31.175Z,4.30
2018-02-23T14:49:10.432Z,4.30
2018-02-23T14:51:37.971Z,4.30
2018-02-23T14:54:06.356Z,4.40
2018-02-23T14:56:33.867Z,4.40
2018-02-23T14:59:01.997Z,4.40
2018-02-23T15:01:29.524Z,4.30
2018-02-23T15:03:57.075Z,4.30
2018-02-23T15:06:24.591Z,4.30
2018-02-23T15:08:52.103Z,4.30
2018-02-23T15:11:20.416Z,4.30
2018-02-23T15:13:47.935Z,4.30
2018-02-23T15:16:15.521Z,4.30
2018-02-23T15:18:43.022Z,4.20
2018-02-23T15:21:11.341Z,4.30
2018-02-23T15:23:38.866Z,4.30
2018-02-23T15:26:07.203Z,4.30
2018-02-23T15:28:34.719Z,4.30
2018-02-23T15:31:14.196Z,4.20
2018-02-23T15:33:42.507Z,4.10
2018-02-23T15:36:10.028Z,4.10
2018-02-23T15:38:37.582Z,4.10
2018-02-23T15:41:05.233Z,4.00
2018-02-23T15:43:32.809Z,4.00
2018-02-23T15:46:00.324Z,3.90
2018-02-23T15:48:33.598Z,3.80
2018-02-23T15:51:06.676Z,3.70
2018-02-23T15:53:34.235Z,3.70
2018-02-23T15:56:02.521Z,3.70
2018-02-23T15:58:36.596Z,3.60
2018-02-23T16:01:04.125Z,3.60
2018-02-23T16:03:31.696Z,3.60
2018-02-23T16:05:59.219Z,3.40
2018-02-23T16:08:26.727Z,3.40
2018-02-23T16:10:54.271Z,3.30
2018-02-23T16:13:21.799Z,3.20
2018-02-23T16:15:49.340Z,3.10
2018-02-23T16:18:17.663Z,3.00
2018-02-23T16:20:45.172Z,3.00
2018-02-23T16:23:12.750Z,3.00
2018-02-23T16:25:40.615Z,2.90
2018-02-23T16:28:08.172Z,3.00
2018-02-23T16:30:35.732Z,2.90
2018-02-23T16:33:03.255Z,2.80
2018-02-23T16:35:30.815Z,2.80
2018-02-23T16:37:58.339Z,2.80
2018-02-23T16:40:25.893Z,2.70
2018-02-23T16:42:54.178Z,2.20
2018-02-23T16:45:22.489Z,2.00
2018-02-23T16:47:50.012Z,2.00
2018-02-23T16:50:17.628Z,2.00
2018-02-23T16:52:45.916Z,1.90
2018-02-23T16:55:14.227Z,2.00
2018-02-23T16:57:41.743Z,2.00
2018-02-23T17:00:09.283Z,2.10
2018-02-23T17:02:36.809Z,2.00
2018-02-23T17:05:04.344Z,2.00
2018-02-23T17:07:31.850Z,1.90
2018-02-23T17:10:00.157Z,1.50
2018-02-23T17:12:28.457Z,1.40
2018-02-23T17:14:56.012Z,1.40
2018-02-23T17:17:23.536Z,1.40
2018-02-23T17:19:51.088Z,1.30
2018-02-23T17:22:18.612Z,1.20
2018-02-23T17:24:46.157Z,1.30
2018-02-23T17:27:13.674Z,1.30
2018-02-23T17:29:41.979Z,1.20
2018-02-23T17:32:09.496Z,1.20
2018-02-23T17:34:37.037Z,1.30
2018-02-23T17:37:04.551Z,1.30
2018-02-23T17:39:32.968Z,1.40
2018-02-23T17:42:01.246Z,1.40
2018-02-23T17:44:28.792Z,1.40
2018-02-23T17:46:56.291Z,1.20
2018-02-23T17:49:23.839Z,1.10
2018-02-23T17:51:51.348Z,1.00
2018-02-23T17:54:18.870Z,1.00
2018-02-23T17:56:46.427Z,0.80
2018-02-23T17:59:13.957Z,0.50
2018-02-23T18:01:42.271Z,-0.10
2018-02-23T18:04:09.833Z,-0.10
2018-02-23T18:06:38.155Z,-0.30
2018-02-23T18:09:05.670Z,-0.30
2018-02-23T18:11:33.992Z,-0.30
2018-02-23T18:14:01.556Z,-0.40
2018-02-23T18:16:29.841Z,-0.40
2018-02-23T18:18:57.378Z,-0.40
2018-02-23T18:21:24.940Z,-0.40
2018-02-23T18:23:52.457Z,-0.40
2018-02-23T18:26:20.765Z,-0.40
2018-02-23T18:28:48.275Z,-0.40
2018-02-23T18:31:15.828Z,-0.20
2018-02-23T18:33:43.338Z,-0.10
2018-02-23T18:36:10.888Z,0.00
2018-02-23T18:38:38.401Z,0.00
2018-02-23T18:41:06.723Z,-0.20
2018-02-23T18:43:34.231Z,-0.30
2018-02-23T18:46:01.804Z,-0.20
2018-02-23T18:48:29.321Z,-0.30
2018-02-23T18:50:56.863Z,-0.30
2018-02-23T18:53:24.380Z,-0.30
2018-02-23T18:55:51.918Z,-0.40
2018-02-23T18:58:20.220Z,-0.70
2018-02-23T19:00:48.536Z,-1.00
2018-02-23T19:03:16.072Z,-1.00
2018-02-23T19:05:43.612Z,-1.20
2018-02-23T19:08:11.127Z,-1.50
2018-02-23T19:10:39.450Z,-1.80
2018-02-23T19:13:06.961Z,-1.90
2018-02-23T19:15:34.529Z,-2.00
2018-02-23T19:18:02.052Z,-2.10
2018-02-23T19:20:29.599Z,-2.00
2018-02-23T19:22:57.887Z,-2.10
2018-02-23T19:25:25.456Z,-2.10
2018-02-23T19:27:53.738Z,-2.20
2018-02-23T19:30:21.352Z,-2.20
2018-02-23T19:32:48.864Z,-2.20
2018-02-23T19:35:16.424Z,-2.30
2018-02-23T19:37:43.947Z,-2.40
2018-02-23T19:40:12.260Z,-2.40
2018-02-23T19:42:39.779Z,-2.40
2018-02-23T19:45:07.352Z,-2.40
2018-02-23T19:47:34.877Z,-2.40
2018-02-23T19:50:02.419Z,-2.50
2018-02-23T19:52:29.938Z,-2.60
2018-02-23T19:54:57.579Z,-2.60
2018-02-23T19:57:25.091Z,-2.70
2018-02-23T19:59:52.641Z,-2.70
2018-02-23T20:02:20.173Z,-2.90
2018-02-23T20:04:47.739Z,-3.00
2018-02-23T20:07:15.257Z,-3.00
2018-02-23T20:09:42.871Z,-3.00
2018-02-23T20:12:10.770Z,-2.70
2018-02-23T20:14:39.053Z,-2.30
2018-02-23T20:17:06.610Z,-2.30
2018-02-23T20:19:34.155Z,-2.20
2018-02-23T20:22:01.763Z,-1.90
2018-02-23T20:24:29.276Z,-1.80
2018-02-23T20:26:56.816Z,-1.80
2018-02-23T20:29:25.122Z,-1.90
2018-02-23T20:31:52.639Z,-1.90
2018-02-23T20:34:20.208Z,-1.90
2018-02-23T20:36:47.739Z,-1.80
2018-02-23T20:39:15.300Z,-1.80
2018-02-23T20:41:43.617Z,-2.00
2018-02-23T20:44:11.173Z,-2.00
2018-02-23T20:46:39.463Z,-2.00
2018-02-23T20:49:07.049Z,-2.00
2018-02-23T20:51:34.568Z,-2.20
2018-02-23T20:54:02.139Z,-2.40
2018-02-23T20:56:29.656Z,-2.40
2018-02-23T20:58:57.207Z,-2.20
2018-02-23T21:01:24.724Z,-2.20
2018-02-23T21:03:52.276Z,-2.20
2018-02-23T21:06:19.918Z,-2.30
2018-02-23T21:08:47.924Z,-2.40
2018-02-23T21:11:15.452Z,-2.30
2018-02-23T21:13:43.009Z,-2.10
2018-02-23T21:16:10.535Z,-1.70
2018-02-23T21:18:38.850Z,-1.30
2018-02-23T21:21:06.439Z,-1.30
2018-02-23T21:23:33.988Z,-1.20
2018-02-23T21:26:01.662Z,-1.10
2018-02-23T21:28:29.227Z,-1.00
2018-02-23T21:30:57.527Z,-0.90
2018-02-23T21:33:25.092Z,-0.90
2018-02-23T21:35:52.615Z,-0.90
2018-02-23T21:38:20.201Z,-0.90
2018-02-23T21:40:47.722Z,-0.90
2018-02-23T21:43:15.236Z,-1.00
2018-02-23T21:45:42.884Z,-1.00
2018-02-23T21:48:10.408Z,-1.00
2018-02-23T21:50:37.957Z,-1.10
2018-02-23T21:53:05.503Z,-1.10
2018-02-23T21:55:33.088Z,-1.30
2018-02-23T21:58:00.609Z,-1.30
2018-02-23T22:00:28.923Z,-1.20
2018-02-23T22:02:56.436Z,-1.30
2018-02-23T22:05:23.993Z,-1.30
2018-02-23T22:07:51.520Z,-1.40
2018-02-23T22:10:19.081Z,-1.50
2018-02-23T22:12:47.368Z,-1.80
2018-02-23T22:15:15.675Z,-1.90
2018-02-23T22:17:43.216Z,-2.00
2018-02-23T22:20:10.768Z,-2.00
2018-02-23T22:22:38.289Z,-1.90
2018-02-23T22:27:40.486Z,-2.00
2018-02-23T22:30:08.802Z,-2.00
2018-02-23T22:32:36.339Z,-2.00
2018-02-23T22:35:03.892Z,-2.00
2018-02-23T22:37:31.411Z,-2.00
2018-02-23T22:39:58.964Z,-2.10
2018-02-23T22:42:27.245Z,-2.30
2018-02-23T22:44:54.799Z,-2.30
2018-02-23T22:47:22.317Z,-2.50
2018-02-23T22:49:49.864Z,-2.70
2018-02-23T22:52:18.155Z,-2.30
2018-02-23T22:54:45.713Z,-2.30
2018-02-23T22:57:13.236Z,-2.40
2018-02-23T22:59:40.798Z,-2.40
2018-02-23T23:02:08.319Z,-2.60
2018-02-23T23:04:35.853Z,-2.40
2018-02-23T23:07:03.395Z,-2.30
2018-02-23T23:09:31.676Z,-2.30
2018-02-23T23:11:59.223Z,-2.30
2018-02-23T23:14:26.740Z,-2.50
2018-02-23T23:16:54.295Z,-2.30
2018-02-23T23:19:22.614Z,-2.50
2018-02-23T23:21:50.164Z,-2.50
2018-02-23T23:24:17.684Z,-2.50
2018-02-23T23:26:45.235Z,-2.50
2018-02-23T23:29:12.782Z,-2.50
2018-02-23T23:31:41.125Z,-2.40
2018-02-23T23:34:08.640Z,-2.40
2018-02-23T23:36:36.212Z,-2.50
2018-02-23T23:39:03.735Z,-2.40
2018-02-23T23:41:31.285Z,-2.40
2018-02-23T23:44:00.475Z,-2.50
2018-02-23T23:46:28.020Z,-2.50
2018-02-23T23:48:55.547Z,-2.40
2018-02-23T23:51:23.099Z,-2.40
2018-02-23T23:53:50.619Z,-2.40
2018-02-23T23:56:18.173Z,-2.40
2018-02-23T23:58:45.700Z,-2.40
